Anchor Point, Alaska
Current Conditions -  °F | °C
As of 6:53 AM on Monday 26 Jan 2015 (Local Time) from PAHO Reporting Station
Clear Clear  
Wind Chill:   Ceiling: Unl
Heat Index: 11°   Visibility: 10mi
Dew Point:   Wind: 7mph
Humidity: 64%   Direction: 30°NNE
Pressure: 29.94"   Gusts: NA
Location:  59.77°N, 151.82°W
Report Text: PAHO 261553Z 03006KT 10SM CLR M12/M17 A2994 RMK SLP138 T11171172 VIA AUTODIAL
Loading
Personal Weather Stations






























Interactive Weather Map New forecast layout! Learn more

10-Day Weather Forecast

Advertisements
Track Severe Weather on mobile